createdAt,value
2018-12-14T00:01:04.779Z,-0.50
2018-12-14T00:03:33.840Z,-0.70
2018-12-14T00:06:03.020Z,-0.70
2018-12-14T00:11:11.372Z,-0.70
2018-12-14T00:16:19.728Z,-0.50
2018-12-14T00:18:49.021Z,-0.70
2018-12-14T00:21:18.204Z,-0.90
2018-12-14T00:23:47.379Z,-0.70
2018-12-14T00:31:14.556Z,-0.90
2018-12-14T00:36:22.989Z,-0.80
2018-12-14T00:38:52.283Z,-0.70
2018-12-14T00:41:21.560Z,-0.90
2018-12-14T00:46:31.944Z,-1.00
2018-12-14T00:49:01.359Z,-0.80
2018-12-14T00:54:10.067Z,-0.80
2018-12-14T00:56:39.294Z,-0.90
2018-12-14T00:59:08.578Z,-0.90
2018-12-14T01:01:37.699Z,-0.80
2018-12-14T01:06:46.472Z,-1.00
2018-12-14T01:09:15.584Z,-1.00
2018-12-14T01:11:44.840Z,-1.00
2018-12-14T01:14:14.179Z,-0.90
2018-12-14T01:16:43.376Z,-0.90
2018-12-14T01:19:12.647Z,-0.90
2018-12-14T01:24:22.544Z,-1.20
2018-12-14T01:26:52.943Z,-1.00
2018-12-14T01:32:01.232Z,-1.00
2018-12-14T01:34:30.525Z,-1.00
2018-12-14T01:36:59.638Z,-0.70
2018-12-14T01:39:29.312Z,-0.80
2018-12-14T01:42:04.636Z,-0.90
2018-12-14T01:44:29.662Z,-1.00
2018-12-14T01:46:58.762Z,-1.00
2018-12-14T01:52:06.960Z,-1.10
2018-12-14T01:54:36.292Z,-1.10
2018-12-14T01:57:05.433Z,-1.10
2018-12-14T01:59:34.667Z,-1.10
2018-12-14T02:02:04.036Z,-1.10
2018-12-14T02:04:33.201Z,-1.00
2018-12-14T02:07:02.407Z,-1.10
2018-12-14T02:09:32.337Z,-1.10
2018-12-14T02:12:02.527Z,-1.20
2018-12-14T02:17:05.605Z,-0.90
2018-12-14T02:19:34.964Z,-1.00
2018-12-14T02:24:43.272Z,-1.10
2018-12-14T02:29:50.586Z,-0.90
2018-12-14T02:32:19.673Z,-0.80
2018-12-14T02:34:50.014Z,-0.80
2018-12-14T02:39:58.262Z,-0.90
2018-12-14T02:42:27.422Z,-1.00
2018-12-14T02:44:56.593Z,-1.10
2018-12-14T02:50:04.885Z,-0.90
2018-12-14T02:52:34.126Z,-0.90
2018-12-14T02:55:03.611Z,-1.00
2018-12-14T02:57:33.235Z,-1.10
2018-12-14T03:00:04.348Z,-1.10
2018-12-14T03:02:33.648Z,-0.90
2018-12-14T03:05:03.643Z,-1.00
2018-12-14T03:07:33.258Z,-0.80
2018-12-14T03:12:43.457Z,-0.70
2018-12-14T03:15:12.667Z,-0.80
2018-12-14T03:17:41.792Z,-0.80
2018-12-14T03:20:11.249Z,-0.70
2018-12-14T03:22:40.497Z,-0.80
2018-12-14T03:25:10.730Z,-0.80
2018-12-14T03:27:39.880Z,-1.00
2018-12-14T03:30:10.220Z,-0.90
2018-12-14T03:32:39.427Z,-0.80
2018-12-14T03:37:46.840Z,-0.90
2018-12-14T03:42:55.097Z,-1.00
2018-12-14T03:45:24.386Z,-1.00
2018-12-14T03:47:53.495Z,-1.20
2018-12-14T03:53:00.715Z,-1.10
2018-12-14T03:55:29.823Z,-1.20
2018-12-14T03:57:59.178Z,-1.20
2018-12-14T04:00:28.727Z,-1.30
2018-12-14T04:02:58.125Z,-1.20
2018-12-14T04:05:27.910Z,-1.20
2018-12-14T04:07:57.232Z,-1.20
2018-12-14T04:10:27.476Z,-1.20
2018-12-14T04:12:56.573Z,-1.10
2018-12-14T04:15:25.617Z,-1.20
2018-12-14T04:17:54.835Z,-1.10
2018-12-14T04:20:24.136Z,-1.30
2018-12-14T04:22:53.280Z,-1.30
2018-12-14T04:25:22.460Z,-1.20
2018-12-14T04:27:51.587Z,-1.30
2018-12-14T04:30:20.709Z,-1.10
2018-12-14T04:35:29.080Z,-1.20
2018-12-14T04:37:58.239Z,-1.10
2018-12-14T04:43:06.552Z,-1.00
2018-12-14T04:45:35.680Z,-1.00
2018-12-14T04:48:04.910Z,-1.00
2018-12-14T04:53:13.637Z,-1.00
2018-12-14T04:55:42.782Z,-0.90
2018-12-14T04:58:11.948Z,-1.10
2018-12-14T05:00:41.034Z,-1.00
2018-12-14T05:03:10.179Z,-0.90
2018-12-14T05:05:39.413Z,-0.90
2018-12-14T05:08:08.497Z,-1.10
2018-12-14T05:10:37.601Z,-1.00
2018-12-14T05:13:08.298Z,-1.10
2018-12-14T05:15:37.440Z,-1.00
2018-12-14T05:18:06.594Z,-1.00
2018-12-14T05:23:20.367Z,-0.90
2018-12-14T05:28:29.178Z,-0.90
2018-12-14T05:31:00.016Z,-0.90
2018-12-14T05:36:15.728Z,-0.90
2018-12-14T05:38:44.951Z,-1.00
2018-12-14T05:41:14.271Z,-1.00
2018-12-14T05:43:43.432Z,-1.00
2018-12-14T05:48:51.207Z,-0.90
2018-12-14T05:53:58.582Z,-0.80
2018-12-14T05:56:28.952Z,1.10
2018-12-14T05:58:58.040Z,1.10
2018-12-14T06:04:06.041Z,-0.10
2018-12-14T06:06:35.883Z,-0.30
2018-12-14T06:11:46.966Z,-0.70
2018-12-14T06:14:16.280Z,-0.60
2018-12-14T06:16:45.564Z,-0.60
2018-12-14T06:19:14.646Z,-0.60
2018-12-14T06:21:43.772Z,-0.60
2018-12-14T06:24:12.928Z,-0.60
2018-12-14T06:26:41.974Z,-0.80
2018-12-14T06:29:11.120Z,-0.80
2018-12-14T06:31:40.380Z,-0.80
2018-12-14T06:34:09.618Z,-1.00
2018-12-14T06:36:38.692Z,-1.10
2018-12-14T06:39:08.095Z,-1.00
2018-12-14T06:41:37.350Z,-0.90
2018-12-14T06:46:45.897Z,-0.90
2018-12-14T06:51:54.101Z,-0.90
2018-12-14T06:54:23.521Z,-0.90
2018-12-14T06:59:31.702Z,-0.90
2018-12-14T07:02:00.859Z,-1.10
2018-12-14T07:07:09.192Z,-0.90
2018-12-14T07:12:17.036Z,-0.90
2018-12-14T07:17:25.368Z,-0.90
2018-12-14T07:19:54.692Z,-0.90
2018-12-14T07:22:23.715Z,-0.90
2018-12-14T07:24:54.334Z,-1.20
2018-12-14T07:27:23.468Z,-1.20
2018-12-14T07:29:52.593Z,-1.20
2018-12-14T07:32:21.764Z,-1.20
2018-12-14T07:34:50.899Z,-1.20
2018-12-14T07:37:19.939Z,-1.00
2018-12-14T07:39:49.111Z,-1.00
2018-12-14T07:42:18.338Z,-0.90
2018-12-14T07:47:26.665Z,-1.00
2018-12-14T07:52:34.076Z,-0.90
2018-12-14T07:55:03.372Z,-1.10
2018-12-14T07:57:32.526Z,-1.00
2018-12-14T08:02:42.200Z,-1.00
2018-12-14T08:05:11.420Z,-1.00
2018-12-14T08:07:40.644Z,-1.20
2018-12-14T08:10:10.638Z,-1.10
2018-12-14T08:12:39.885Z,-1.00
2018-12-14T08:15:11.451Z,-1.00
2018-12-14T08:20:19.012Z,-1.10
2018-12-14T08:22:48.054Z,-0.90
2018-12-14T08:25:17.930Z,-0.80
2018-12-14T08:27:47.154Z,-0.90
2018-12-14T08:30:16.599Z,-1.00
2018-12-14T08:35:24.836Z,-1.20
2018-12-14T08:37:54.019Z,-1.20
2018-12-14T08:40:24.623Z,-1.30
2018-12-14T08:42:53.791Z,-1.10
2018-12-14T08:48:02.375Z,-1.00
2018-12-14T08:53:10.192Z,-0.90
2018-12-14T08:58:19.024Z,-1.00
2018-12-14T09:00:48.269Z,-0.90
2018-12-14T09:03:17.905Z,-1.10
2018-12-14T09:05:47.093Z,-1.00
2018-12-14T09:08:16.168Z,-1.00
2018-12-14T09:10:45.333Z,-0.90
2018-12-14T09:13:14.514Z,-1.00
2018-12-14T09:18:22.303Z,-1.00
2018-12-14T09:20:51.440Z,-0.90
2018-12-14T09:23:20.519Z,-0.80
2018-12-14T09:25:49.633Z,-0.90
2018-12-14T09:30:59.175Z,-0.80
2018-12-14T09:36:07.125Z,-0.80
2018-12-14T09:38:36.245Z,-0.80
2018-12-14T09:41:05.437Z,-1.00
2018-12-14T09:43:34.571Z,-0.90
2018-12-14T09:46:03.843Z,-1.10
2018-12-14T09:48:32.991Z,-1.10
2018-12-14T09:51:02.121Z,-1.00
2018-12-14T09:53:31.328Z,-0.90
2018-12-14T09:58:39.356Z,-0.90
2018-12-14T10:01:08.516Z,-0.80
2018-12-14T10:03:38.373Z,-0.70
2018-12-14T10:06:07.588Z,-0.90
2018-12-14T10:08:36.621Z,-0.70
2018-12-14T10:11:05.790Z,-0.80
2018-12-14T10:13:35.208Z,-0.60
2018-12-14T10:16:04.696Z,-0.70
2018-12-14T10:18:33.868Z,-0.70
2018-12-14T10:21:02.984Z,-0.60
2018-12-14T10:23:32.124Z,-0.70
2018-12-14T10:26:01.254Z,-0.70
2018-12-14T10:28:30.440Z,-0.70
2018-12-14T10:30:59.685Z,-0.70
2018-12-14T10:33:28.800Z,-0.60
2018-12-14T10:35:57.989Z,-0.70
2018-12-14T10:38:27.112Z,-0.40
2018-12-14T10:40:56.264Z,-0.60
2018-12-14T10:43:25.375Z,-0.70
2018-12-14T10:48:35.031Z,-0.70
2018-12-14T10:51:04.154Z,-0.70
2018-12-14T10:53:33.364Z,-0.70
2018-12-14T10:56:02.422Z,-0.90
2018-12-14T10:58:31.485Z,-0.80
2018-12-14T11:01:06.110Z,-0.70
2018-12-14T11:03:35.177Z,-0.60
2018-12-14T11:08:43.551Z,-0.60
2018-12-14T11:11:12.724Z,-0.70
2018-12-14T11:13:42.758Z,-0.60
2018-12-14T11:16:11.823Z,-0.50
2018-12-14T11:18:41.825Z,-0.70
2018-12-14T11:21:11.955Z,-0.60
2018-12-14T11:23:42.003Z,-0.40
2018-12-14T11:28:51.029Z,-0.50
2018-12-14T11:31:20.211Z,-0.20
2018-12-14T11:33:49.279Z,-0.50
2018-12-14T11:36:18.549Z,-0.40
2018-12-14T11:38:47.721Z,-0.30
2018-12-14T11:43:57.229Z,-0.40
2018-12-14T11:49:05.665Z,-0.70
2018-12-14T11:54:13.864Z,-0.70
2018-12-14T11:56:43.039Z,-0.60
2018-12-14T12:01:51.062Z,-0.20
2018-12-14T12:04:20.168Z,-0.20
2018-12-14T12:09:28.392Z,-0.40
2018-12-14T12:14:36.685Z,-0.20
2018-12-14T12:17:05.821Z,-0.30
2018-12-14T12:19:34.881Z,-0.50
2018-12-14T12:22:04.128Z,-0.40
2018-12-14T12:24:33.406Z,-0.40
2018-12-14T12:27:02.556Z,-0.70
2018-12-14T12:29:31.633Z,-0.60
2018-12-14T12:32:00.918Z,-0.70
2018-12-14T12:34:30.044Z,-0.40
2018-12-14T12:36:59.179Z,-0.40
2018-12-14T12:42:08.601Z,-0.50
2018-12-14T12:44:37.726Z,-0.50
2018-12-14T12:47:06.898Z,-0.60
2018-12-14T12:49:36.124Z,-0.70
2018-12-14T12:54:43.458Z,-0.50
2018-12-14T12:57:13.423Z,-0.50
2018-12-14T13:02:22.792Z,-0.30
2018-12-14T13:04:52.340Z,-0.50
2018-12-14T13:07:21.553Z,-0.50
2018-12-14T13:09:50.733Z,-0.60
2018-12-14T13:12:19.892Z,-0.80
2018-12-14T13:14:49.233Z,-0.70
2018-12-14T13:17:18.375Z,-0.50
2018-12-14T13:22:26.200Z,-0.40
2018-12-14T13:24:55.319Z,-0.40
2018-12-14T13:30:04.218Z,-0.50
2018-12-14T13:35:12.084Z,-0.40
2018-12-14T13:37:41.215Z,-0.50
2018-12-14T13:40:10.556Z,-0.80
2018-12-14T13:42:39.864Z,-0.80
2018-12-14T13:45:09.429Z,-0.50
2018-12-14T13:47:38.525Z,-0.50
2018-12-14T13:50:08.041Z,-0.60
2018-12-14T13:55:14.966Z,-0.80
2018-12-14T14:00:25.075Z,-0.70
2018-12-14T14:05:32.799Z,-0.80
2018-12-14T14:08:01.972Z,-0.70
2018-12-14T14:10:31.057Z,-0.70
2018-12-14T14:13:00.160Z,-0.80
2018-12-14T14:18:08.464Z,-1.00
2018-12-14T14:20:37.643Z,-1.00
2018-12-14T14:23:06.668Z,-1.10
2018-12-14T14:25:36.218Z,-1.00
2018-12-14T14:28:05.379Z,-1.10
2018-12-14T14:30:34.724Z,-0.90
2018-12-14T14:33:04.013Z,-0.90
2018-12-14T14:35:33.268Z,-0.90
2018-12-14T14:38:02.433Z,-0.90
2018-12-14T14:40:31.468Z,-0.90
2018-12-14T14:43:00.636Z,-0.90
2018-12-14T14:45:30.247Z,-0.80
2018-12-14T14:50:37.592Z,-0.70
2018-12-14T14:53:06.731Z,-0.70
2018-12-14T14:58:15.036Z,-0.90
2018-12-14T15:00:44.140Z,-0.80
2018-12-14T15:05:53.080Z,-0.90
2018-12-14T15:08:22.283Z,-0.90
2018-12-14T15:10:51.386Z,-0.90
2018-12-14T15:13:20.511Z,-1.00
2018-12-14T15:15:49.649Z,-0.90
2018-12-14T15:18:18.849Z,-0.70
2018-12-14T15:23:29.155Z,-0.70
2018-12-14T15:25:58.288Z,-0.90
2018-12-14T15:28:27.502Z,-0.90
2018-12-14T15:30:56.600Z,-0.90
2018-12-14T15:33:25.880Z,-1.00
2018-12-14T15:35:55.119Z,-1.00
2018-12-14T15:38:24.288Z,-1.20
2018-12-14T15:40:53.422Z,-1.10
2018-12-14T15:43:22.620Z,-1.00
2018-12-14T15:45:51.883Z,-0.80
2018-12-14T15:50:59.309Z,-0.90
2018-12-14T15:53:28.460Z,-0.80
2018-12-14T15:55:57.575Z,-0.80
2018-12-14T15:58:26.690Z,-0.80
2018-12-14T16:00:55.906Z,-0.90
2018-12-14T16:03:25.048Z,-0.90
2018-12-14T16:05:54.178Z,-0.80
2018-12-14T16:08:23.298Z,-0.70
2018-12-14T16:13:31.527Z,-0.60
2018-12-14T16:16:00.713Z,-0.40
2018-12-14T16:18:30.359Z,-0.60
2018-12-14T16:20:59.449Z,-0.90
2018-12-14T16:23:28.601Z,-1.10
2018-12-14T16:25:57.872Z,-0.90
2018-12-14T16:28:27.038Z,-1.10
2018-12-14T16:30:56.100Z,-1.00
2018-12-14T16:33:25.188Z,-0.90
2018-12-14T16:35:54.372Z,-0.80
2018-12-14T16:38:23.813Z,-0.80
2018-12-14T16:43:32.115Z,-0.70
2018-12-14T16:46:01.327Z,-0.70
2018-12-14T16:48:30.532Z,-0.50
2018-12-14T16:53:43.259Z,-0.80
2018-12-14T16:56:13.522Z,-0.90
2018-12-14T17:01:21.785Z,-0.90
2018-12-14T17:06:30.346Z,-0.80
2018-12-14T17:08:59.541Z,-0.90
2018-12-14T17:11:28.760Z,-1.00
2018-12-14T17:13:59.058Z,-0.90
2018-12-14T17:16:28.277Z,-0.70
2018-12-14T17:18:57.460Z,-0.60
2018-12-14T17:21:26.549Z,-0.70
2018-12-14T17:23:55.652Z,-0.80
2018-12-14T17:26:24.863Z,-0.60
2018-12-14T17:31:32.626Z,-0.70
2018-12-14T17:36:40.977Z,-1.00
2018-12-14T17:39:10.152Z,-0.90
2018-12-14T17:44:18.556Z,-0.60
2018-12-14T17:46:48.613Z,-0.80
2018-12-14T17:51:58.198Z,1.20
2018-12-14T17:54:27.307Z,3.00
2018-12-14T17:56:56.459Z,3.80
2018-12-14T17:59:25.651Z,2.80
2018-12-14T18:04:33.908Z,0.60
2018-12-14T18:07:03.256Z,0.00
2018-12-14T18:09:34.184Z,0.00
2018-12-14T18:12:03.525Z,-0.30
2018-12-14T18:14:32.664Z,-0.40
2018-12-14T18:19:40.910Z,-0.40
2018-12-14T18:24:49.256Z,-0.40
2018-12-14T18:29:59.796Z,-0.30
2018-12-14T18:32:28.924Z,-0.50
2018-12-14T18:34:58.033Z,-0.60
2018-12-14T18:37:27.200Z,-0.40
2018-12-14T18:39:56.311Z,-0.40
2018-12-14T18:42:25.413Z,-0.20
2018-12-14T18:44:54.584Z,-0.40
2018-12-14T18:47:23.707Z,-0.50
2018-12-14T18:52:32.139Z,-0.60
2018-12-14T18:55:01.350Z,-0.80
2018-12-14T18:57:31.370Z,-0.80
2018-12-14T19:00:00.468Z,-0.60
2018-12-14T19:02:29.627Z,-0.60
2018-12-14T19:04:59.416Z,-0.70
2018-12-14T19:07:28.513Z,-0.70
2018-12-14T19:09:57.700Z,-0.60
2018-12-14T19:12:27.348Z,-0.60
2018-12-14T19:14:56.837Z,-0.50
2018-12-14T19:20:16.287Z,-0.70
2018-12-14T19:22:45.965Z,-0.80
2018-12-14T19:25:15.115Z,-0.50
2018-12-14T19:27:44.288Z,-0.90
2018-12-14T19:30:14.747Z,-0.70
2018-12-14T19:32:43.929Z,-0.70
2018-12-14T19:37:52.261Z,-0.50
2018-12-14T19:40:21.429Z,-0.60
2018-12-14T19:42:50.648Z,-0.70
2018-12-14T19:45:19.984Z,-0.60
2018-12-14T19:47:49.396Z,-0.60
2018-12-14T19:50:19.344Z,-0.50
2018-12-14T19:52:49.196Z,-0.80
2018-12-14T19:55:19.274Z,-0.70
2018-12-14T20:00:27.296Z,-0.70
2018-12-14T20:05:36.188Z,-0.80
2018-12-14T20:08:05.446Z,-0.70
2018-12-14T20:13:12.990Z,-0.80
2018-12-14T20:15:42.095Z,-0.70
2018-12-14T20:18:11.303Z,-0.70
2018-12-14T20:20:40.652Z,-0.60
2018-12-14T20:23:09.796Z,-0.70
2018-12-14T20:25:38.900Z,-0.70
2018-12-14T20:28:08.071Z,-0.60
2018-12-14T20:30:37.248Z,-0.70
2018-12-14T20:33:06.424Z,-0.60
2018-12-14T20:35:35.904Z,-0.70
2018-12-14T20:38:05.539Z,-0.90
2018-12-14T20:40:34.738Z,-0.90
2018-12-14T20:43:03.931Z,-0.60
2018-12-14T20:45:33.160Z,-0.80
2018-12-14T20:48:02.296Z,-0.70
2018-12-14T20:50:31.417Z,-0.50
2018-12-14T20:53:00.512Z,-0.50
2018-12-14T20:55:29.627Z,-0.50
2018-12-14T20:57:59.759Z,-0.60
2018-12-14T21:03:07.093Z,-0.60
2018-12-14T21:05:36.293Z,-0.50
2018-12-14T21:08:05.419Z,-0.50
2018-12-14T21:10:34.645Z,-0.50
2018-12-14T21:13:04.048Z,-0.50
2018-12-14T21:15:33.292Z,-0.70
2018-12-14T21:18:02.551Z,-0.60
2018-12-14T21:20:31.858Z,-0.60
2018-12-14T21:23:01.252Z,-0.70
2018-12-14T21:25:30.440Z,-0.70
2018-12-14T21:27:59.531Z,-0.70
2018-12-14T21:30:29.761Z,-0.50
2018-12-14T21:32:59.333Z,-0.50
2018-12-14T21:35:28.514Z,-0.50
2018-12-14T21:37:57.584Z,-0.50
2018-12-14T21:40:26.756Z,-0.60
2018-12-14T21:42:55.932Z,-0.80
2018-12-14T21:45:25.097Z,-0.70
2018-12-14T21:47:54.280Z,-0.50
2018-12-14T21:50:23.745Z,-0.60
2018-12-14T21:52:52.884Z,-0.60
2018-12-14T21:55:22.083Z,-0.70
2018-12-14T21:57:51.527Z,-0.50
2018-12-14T22:00:21.360Z,-0.70
2018-12-14T22:02:51.319Z,-0.70
2018-12-14T22:05:21.359Z,-0.50
2018-12-14T22:07:51.547Z,-0.30
2018-12-14T22:10:21.751Z,-0.20
2018-12-14T22:12:51.709Z,-0.50
2018-12-14T22:18:00.875Z,-0.30
2018-12-14T22:20:29.963Z,-0.30
2018-12-14T22:22:59.040Z,-0.30
2018-12-14T22:25:28.196Z,-0.50
2018-12-14T22:27:57.444Z,-0.60
2018-12-14T22:30:26.580Z,-0.50
2018-12-14T22:32:55.695Z,-0.50
2018-12-14T22:35:24.838Z,-0.60
2018-12-14T22:37:53.985Z,-0.50
2018-12-14T22:40:23.219Z,-0.40
2018-12-14T22:42:52.463Z,-0.50
2018-12-14T22:45:21.761Z,-0.60
2018-12-14T22:47:53.209Z,-0.70
2018-12-14T22:53:00.515Z,-0.20
2018-12-14T22:55:29.652Z,-0.40
2018-12-14T22:57:58.969Z,-0.40
2018-12-14T23:00:28.504Z,-0.60
2018-12-14T23:02:57.635Z,-0.80
2018-12-14T23:08:07.093Z,-0.60
2018-12-14T23:13:14.904Z,-0.50
2018-12-14T23:15:44.015Z,-0.40
2018-12-14T23:20:51.821Z,-0.40
2018-12-14T23:23:23.293Z,-0.50
2018-12-14T23:25:52.410Z,-0.70
2018-12-14T23:28:22.247Z,-0.60
2018-12-14T23:30:52.291Z,-0.70
2018-12-14T23:33:22.332Z,-0.80
2018-12-14T23:35:52.334Z,-0.90
2018-12-14T23:41:01.364Z,-0.80
2018-12-14T23:43:30.422Z,-0.60
2018-12-14T23:45:59.620Z,-0.80
2018-12-14T23:51:06.816Z,-0.70
2018-12-14T23:53:36.047Z,-0.70
2018-12-14T23:58:44.364Z,-0.70
